sensor_id;sensor_type;location;lat;lon;timestamp;temperature;humidity
52036;DHT22;38046;49.448;32.074;2023-04-21T00:00:55;9.10;96.40
52036;DHT22;38046;49.448;32.074;2023-04-21T00:03:21;9.10;96.60
52036;DHT22;38046;49.448;32.074;2023-04-21T00:05:54;9.10;96.70
52036;DHT22;38046;49.448;32.074;2023-04-21T00:08:20;9.10;96.80
52036;DHT22;38046;49.448;32.074;2023-04-21T00:10:46;9.10;96.80
52036;DHT22;38046;49.448;32.074;2023-04-21T00:13:12;9.10;96.90
52036;DHT22;38046;49.448;32.074;2023-04-21T00:15:38;9.10;96.80
52036;DHT22;38046;49.448;32.074;2023-04-21T00:18:04;9.10;96.90
52036;DHT22;38046;49.448;32.074;2023-04-21T00:20:30;9.10;96.80
52036;DHT22;38046;49.448;32.074;2023-04-21T00:22:57;9.10;96.60
52036;DHT22;38046;49.448;32.074;2023-04-21T00:25:23;9.20;96.60
52036;DHT22;38046;49.448;32.074;2023-04-21T00:27:49;9.20;96.60
52036;DHT22;38046;49.448;32.074;2023-04-21T00:30:16;9.10;96.30
52036;DHT22;38046;49.448;32.074;2023-04-21T00:32:42;9.10;96.20
52036;DHT22;38046;49.448;32.074;2023-04-21T00:35:11;9.10;96.20
52036;DHT22;38046;49.448;32.074;2023-04-21T00:37:37;9.10;96.30
52036;DHT22;38046;49.448;32.074;2023-04-21T00:40:03;9.10;96.40
52036;DHT22;38046;49.448;32.074;2023-04-21T00:42:30;9.10;96.30
52036;DHT22;38046;49.448;32.074;2023-04-21T00:44:56;9.10;96.30
52036;DHT22;38046;49.448;32.074;2023-04-21T00:47:21;9.10;96.20
52036;DHT22;38046;49.448;32.074;2023-04-21T00:49:47;9.20;96.20
52036;DHT22;38046;49.448;32.074;2023-04-21T00:52:15;9.10;96.10
52036;DHT22;38046;49.448;32.074;2023-04-21T00:54:42;9.10;96.20
52036;DHT22;38046;49.448;32.074;2023-04-21T00:57:08;9.20;96.20
52036;DHT22;38046;49.448;32.074;2023-04-21T00:59:35;9.10;96.20
52036;DHT22;38046;49.448;32.074;2023-04-21T01:02:00;9.10;96.20
52036;DHT22;38046;49.448;32.074;2023-04-21T01:04:27;9.10;96.20
52036;DHT22;38046;49.448;32.074;2023-04-21T01:06:53;9.10;96.30
52036;DHT22;38046;49.448;32.074;2023-04-21T01:09:19;9.10;96.40
52036;DHT22;38046;49.448;32.074;2023-04-21T01:14:28;9.10;96.40
52036;DHT22;38046;49.448;32.074;2023-04-21T01:16:55;9.00;96.50
52036;DHT22;38046;49.448;32.074;2023-04-21T01:19:21;9.00;96.70
52036;DHT22;38046;49.448;32.074;2023-04-21T01:21:47;9.00;96.80
52036;DHT22;38046;49.448;32.074;2023-04-21T01:24:13;9.00;96.90
52036;DHT22;38046;49.448;32.074;2023-04-21T01:26:40;9.00;97.10
52036;DHT22;38046;49.448;32.074;2023-04-21T01:29:05;9.00;97.20
52036;DHT22;38046;49.448;32.074;2023-04-21T01:31:31;9.00;97.20
52036;DHT22;38046;49.448;32.074;2023-04-21T01:33:57;9.00;97.20
52036;DHT22;38046;49.448;32.074;2023-04-21T01:36:22;9.00;97.20
52036;DHT22;38046;49.448;32.074;2023-04-21T01:38:48;9.00;97.40
52036;DHT22;38046;49.448;32.074;2023-04-21T01:41:13;9.00;97.60
52036;DHT22;38046;49.448;32.074;2023-04-21T01:43:39;9.00;97.70
52036;DHT22;38046;49.448;32.074;2023-04-21T01:46:05;9.00;98.00
52036;DHT22;38046;49.448;32.074;2023-04-21T01:48:31;9.00;98.30
52036;DHT22;38046;49.448;32.074;2023-04-21T01:50:56;9.00;98.50
52036;DHT22;38046;49.448;32.074;2023-04-21T01:53:22;8.90;98.70
52036;DHT22;38046;49.448;32.074;2023-04-21T01:55:48;9.00;98.50
52036;DHT22;38046;49.448;32.074;2023-04-21T01:58:13;8.90;98.50
52036;DHT22;38046;49.448;32.074;2023-04-21T02:00:39;8.90;98.70
52036;DHT22;38046;49.448;32.074;2023-04-21T02:03:05;8.90;98.90
52036;DHT22;38046;49.448;32.074;2023-04-21T02:05:31;8.90;99.10
52036;DHT22;38046;49.448;32.074;2023-04-21T02:07:56;8.90;99.10
52036;DHT22;38046;49.448;32.074;2023-04-21T02:10:22;8.90;99.30
52036;DHT22;38046;49.448;32.074;2023-04-21T02:12:48;8.90;99.60
52036;DHT22;38046;49.448;32.074;2023-04-21T02:15:13;8.90;99.70
52036;DHT22;38046;49.448;32.074;2023-04-21T02:17:39;8.90;99.70
52036;DHT22;38046;49.448;32.074;2023-04-21T02:20:07;8.90;99.60
52036;DHT22;38046;49.448;32.074;2023-04-21T02:22:33;8.90;99.60
52036;DHT22;38046;49.448;32.074;2023-04-21T02:24:59;8.90;99.80
52036;DHT22;38046;49.448;32.074;2023-04-21T02:27:24;8.90;99.70
52036;DHT22;38046;49.448;32.074;2023-04-21T02:29:50;8.90;99.80
52036;DHT22;38046;49.448;32.074;2023-04-21T02:32:16;8.90;99.80
52036;DHT22;38046;49.448;32.074;2023-04-21T02:34:41;8.90;99.70
52036;DHT22;38046;49.448;32.074;2023-04-21T02:37:07;8.90;99.70
52036;DHT22;38046;49.448;32.074;2023-04-21T02:39:32;9.00;99.60
52036;DHT22;38046;49.448;32.074;2023-04-21T02:41:58;9.00;99.40
52036;DHT22;38046;49.448;32.074;2023-04-21T02:44:24;9.00;99.40
52036;DHT22;38046;49.448;32.074;2023-04-21T02:46:49;9.00;99.40
52036;DHT22;38046;49.448;32.074;2023-04-21T02:49:15;9.00;99.30
52036;DHT22;38046;49.448;32.074;2023-04-21T02:51:41;9.00;99.30
52036;DHT22;38046;49.448;32.074;2023-04-21T02:54:06;9.00;99.40
52036;DHT22;38046;49.448;32.074;2023-04-21T02:56:32;9.00;99.40
52036;DHT22;38046;49.448;32.074;2023-04-21T02:58:59;9.00;99.40
52036;DHT22;38046;49.448;32.074;2023-04-21T03:01:24;9.00;99.50
52036;DHT22;38046;49.448;32.074;2023-04-21T03:03:50;9.00;99.50
52036;DHT22;38046;49.448;32.074;2023-04-21T03:06:16;9.00;99.60
52036;DHT22;38046;49.448;32.074;2023-04-21T03:08:42;9.00;99.70
52036;DHT22;38046;49.448;32.074;2023-04-21T03:11:08;9.00;99.70
52036;DHT22;38046;49.448;32.074;2023-04-21T03:13:33;9.00;99.60
52036;DHT22;38046;49.448;32.074;2023-04-21T03:15:59;9.00;99.80
52036;DHT22;38046;49.448;32.074;2023-04-21T03:18:25;9.00;99.80
52036;DHT22;38046;49.448;32.074;2023-04-21T03:20:51;9.00;99.80
52036;DHT22;38046;49.448;32.074;2023-04-21T03:23:16;9.00;99.90
52036;DHT22;38046;49.448;32.074;2023-04-21T03:25:42;9.00;99.90
52036;DHT22;38046;49.448;32.074;2023-04-21T03:28:08;9.00;99.90
52036;DHT22;38046;49.448;32.074;2023-04-21T03:30:33;9.00;99.90
52036;DHT22;38046;49.448;32.074;2023-04-21T03:32:59;9.00;99.90
52036;DHT22;38046;49.448;32.074;2023-04-21T03:35:25;9.00;99.90
52036;DHT22;38046;49.448;32.074;2023-04-21T03:37:51;9.00;99.90
52036;DHT22;38046;49.448;32.074;2023-04-21T03:40:17;8.90;99.90
52036;DHT22;38046;49.448;32.074;2023-04-21T03:42:42;8.90;99.90
52036;DHT22;38046;49.448;32.074;2023-04-21T03:45:09;9.00;99.90
52036;DHT22;38046;49.448;32.074;2023-04-21T03:47:35;9.00;99.90
52036;DHT22;38046;49.448;32.074;2023-04-21T03:50:04;9.00;99.90
52036;DHT22;38046;49.448;32.074;2023-04-21T03:52:31;9.00;99.90
52036;DHT22;38046;49.448;32.074;2023-04-21T03:54:57;9.00;99.90
52036;DHT22;38046;49.448;32.074;2023-04-21T03:57:23;9.00;99.90
52036;DHT22;38046;49.448;32.074;2023-04-21T03:59:48;8.90;99.90
52036;DHT22;38046;49.448;32.074;2023-04-21T04:02:14;9.00;99.90
52036;DHT22;38046;49.448;32.074;2023-04-21T04:04:40;9.00;99.90
52036;DHT22;38046;49.448;32.074;2023-04-21T04:07:06;9.00;99.90
52036;DHT22;38046;49.448;32.074;2023-04-21T04:09:33;9.00;99.90
52036;DHT22;38046;49.448;32.074;2023-04-21T04:11:58;9.00;99.90
52036;DHT22;38046;49.448;32.074;2023-04-21T04:14:24;9.00;99.90
52036;DHT22;38046;49.448;32.074;2023-04-21T04:16:50;9.00;99.90
52036;DHT22;38046;49.448;32.074;2023-04-21T04:19:15;9.00;99.90
52036;DHT22;38046;49.448;32.074;2023-04-21T04:21:41;9.00;99.90
52036;DHT22;38046;49.448;32.074;2023-04-21T04:24:07;9.10;99.90
52036;DHT22;38046;49.448;32.074;2023-04-21T04:26:33;9.00;99.90
52036;DHT22;38046;49.448;32.074;2023-04-21T04:29:00;9.10;99.90
52036;DHT22;38046;49.448;32.074;2023-04-21T04:31:28;9.10;99.90
52036;DHT22;38046;49.448;32.074;2023-04-21T04:33:55;9.10;99.90
52036;DHT22;38046;49.448;32.074;2023-04-21T04:36:20;9.10;99.90
52036;DHT22;38046;49.448;32.074;2023-04-21T04:38:47;9.10;99.90
52036;DHT22;38046;49.448;32.074;2023-04-21T04:41:12;9.10;99.90
52036;DHT22;38046;49.448;32.074;2023-04-21T04:43:40;9.20;99.90
52036;DHT22;38046;49.448;32.074;2023-04-21T04:46:06;9.20;99.90
52036;DHT22;38046;49.448;32.074;2023-04-21T04:48:33;9.20;99.90
52036;DHT22;38046;49.448;32.074;2023-04-21T04:51:00;9.20;99.90
52036;DHT22;38046;49.448;32.074;2023-04-21T04:53:27;9.20;99.90
52036;DHT22;38046;49.448;32.074;2023-04-21T04:55:53;9.20;99.90
52036;DHT22;38046;49.448;32.074;2023-04-21T04:58:19;9.30;99.90
52036;DHT22;38046;49.448;32.074;2023-04-21T05:00:45;9.30;99.90
52036;DHT22;38046;49.448;32.074;2023-04-21T05:03:11;9.30;99.90
52036;DHT22;38046;49.448;32.074;2023-04-21T05:05:36;9.30;99.90
52036;DHT22;38046;49.448;32.074;2023-04-21T05:08:02;9.30;99.90
52036;DHT22;38046;49.448;32.074;2023-04-21T05:10:28;9.30;99.80
52036;DHT22;38046;49.448;32.074;2023-04-21T05:12:53;9.30;99.60
52036;DHT22;38046;49.448;32.074;2023-04-21T05:15:19;9.40;99.40
52036;DHT22;38046;49.448;32.074;2023-04-21T05:17:45;9.40;99.10
52036;DHT22;38046;49.448;32.074;2023-04-21T05:20:10;9.40;99.00
52036;DHT22;38046;49.448;32.074;2023-04-21T05:22:37;9.50;99.10
52036;DHT22;38046;49.448;32.074;2023-04-21T05:25:03;9.50;98.90
52036;DHT22;38046;49.448;32.074;2023-04-21T05:27:29;9.50;98.90
52036;DHT22;38046;49.448;32.074;2023-04-21T05:29:55;9.50;98.70
52036;DHT22;38046;49.448;32.074;2023-04-21T05:32:20;9.40;98.80
52036;DHT22;38046;49.448;32.074;2023-04-21T05:34:46;9.50;98.70
52036;DHT22;38046;49.448;32.074;2023-04-21T05:37:12;9.50;98.70
52036;DHT22;38046;49.448;32.074;2023-04-21T05:39:37;9.50;98.60
52036;DHT22;38046;49.448;32.074;2023-04-21T05:42:03;9.50;98.50
52036;DHT22;38046;49.448;32.074;2023-04-21T05:44:29;9.50;98.50
52036;DHT22;38046;49.448;32.074;2023-04-21T05:46:55;9.50;98.50
52036;DHT22;38046;49.448;32.074;2023-04-21T05:49:21;9.50;98.40
52036;DHT22;38046;49.448;32.074;2023-04-21T05:51:46;9.50;98.30
52036;DHT22;38046;49.448;32.074;2023-04-21T05:54:12;9.50;98.20
52036;DHT22;38046;49.448;32.074;2023-04-21T05:56:38;9.50;98.10
52036;DHT22;38046;49.448;32.074;2023-04-21T05:59:03;9.50;98.20
52036;DHT22;38046;49.448;32.074;2023-04-21T06:01:31;9.50;98.10
52036;DHT22;38046;49.448;32.074;2023-04-21T06:03:57;9.50;97.90
52036;DHT22;38046;49.448;32.074;2023-04-21T06:06:25;9.50;98.00
52036;DHT22;38046;49.448;32.074;2023-04-21T06:08:50;9.50;98.00
52036;DHT22;38046;49.448;32.074;2023-04-21T06:11:16;9.50;98.10
52036;DHT22;38046;49.448;32.074;2023-04-21T06:13:41;9.50;98.20
52036;DHT22;38046;49.448;32.074;2023-04-21T06:16:07;9.50;98.20
52036;DHT22;38046;49.448;32.074;2023-04-21T06:18:33;9.50;98.40
52036;DHT22;38046;49.448;32.074;2023-04-21T06:20:58;9.50;98.30
52036;DHT22;38046;49.448;32.074;2023-04-21T06:23:24;9.50;98.30
52036;DHT22;38046;49.448;32.074;2023-04-21T06:26:04;9.50;98.20
52036;DHT22;38046;49.448;32.074;2023-04-21T06:28:31;9.60;98.10
52036;DHT22;38046;49.448;32.074;2023-04-21T06:30:58;9.60;98.30
52036;DHT22;38046;49.448;32.074;2023-04-21T06:33:24;9.60;98.20
52036;DHT22;38046;49.448;32.074;2023-04-21T06:35:51;9.50;98.10
52036;DHT22;38046;49.448;32.074;2023-04-21T06:38:17;9.60;98.30
52036;DHT22;38046;49.448;32.074;2023-04-21T06:40:43;9.60;98.30
52036;DHT22;38046;49.448;32.074;2023-04-21T06:43:08;9.60;98.40
52036;DHT22;38046;49.448;32.074;2023-04-21T06:45:34;9.60;98.70
52036;DHT22;38046;49.448;32.074;2023-04-21T06:48:00;9.60;98.80
52036;DHT22;38046;49.448;32.074;2023-04-21T06:50:25;9.50;98.70
52036;DHT22;38046;49.448;32.074;2023-04-21T06:52:51;9.60;98.90
52036;DHT22;38046;49.448;32.074;2023-04-21T06:55:17;9.60;99.00
52036;DHT22;38046;49.448;32.074;2023-04-21T06:57:42;9.60;99.00
52036;DHT22;38046;49.448;32.074;2023-04-21T07:00:08;9.60;98.90
52036;DHT22;38046;49.448;32.074;2023-04-21T07:02:34;9.60;99.10
52036;DHT22;38046;49.448;32.074;2023-04-21T07:05:00;9.60;99.30
52036;DHT22;38046;49.448;32.074;2023-04-21T07:07:26;9.60;99.20
52036;DHT22;38046;49.448;32.074;2023-04-21T07:09:51;9.60;99.30
52036;DHT22;38046;49.448;32.074;2023-04-21T07:12:17;9.60;99.40
52036;DHT22;38046;49.448;32.074;2023-04-21T07:14:42;9.70;99.50
52036;DHT22;38046;49.448;32.074;2023-04-21T07:17:08;9.70;99.50
52036;DHT22;38046;49.448;32.074;2023-04-21T07:19:34;9.70;99.50
52036;DHT22;38046;49.448;32.074;2023-04-21T07:21:59;9.70;99.60
52036;DHT22;38046;49.448;32.074;2023-04-21T07:24:25;9.70;99.80
52036;DHT22;38046;49.448;32.074;2023-04-21T07:26:51;9.70;99.50
52036;DHT22;38046;49.448;32.074;2023-04-21T07:29:16;9.70;99.40
52036;DHT22;38046;49.448;32.074;2023-04-21T07:31:42;9.70;99.70
52036;DHT22;38046;49.448;32.074;2023-04-21T07:34:07;9.70;99.40
52036;DHT22;38046;49.448;32.074;2023-04-21T07:36:33;9.70;99.60
52036;DHT22;38046;49.448;32.074;2023-04-21T07:38:59;9.70;99.70
52036;DHT22;38046;49.448;32.074;2023-04-21T07:41:25;9.70;99.90
52036;DHT22;38046;49.448;32.074;2023-04-21T07:43:50;9.70;99.90
52036;DHT22;38046;49.448;32.074;2023-04-21T07:46:16;9.70;99.90
52036;DHT22;38046;49.448;32.074;2023-04-21T07:48:41;9.70;99.90
52036;DHT22;38046;49.448;32.074;2023-04-21T07:51:07;9.70;99.90
52036;DHT22;38046;49.448;32.074;2023-04-21T07:53:33;9.70;99.90
52036;DHT22;38046;49.448;32.074;2023-04-21T07:55:59;9.70;99.90
52036;DHT22;38046;49.448;32.074;2023-04-21T07:58:24;9.80;99.90
52036;DHT22;38046;49.448;32.074;2023-04-21T08:00:50;9.80;99.90
52036;DHT22;38046;49.448;32.074;2023-04-21T08:03:16;9.80;99.90
52036;DHT22;38046;49.448;32.074;2023-04-21T08:05:41;9.80;99.90
52036;DHT22;38046;49.448;32.074;2023-04-21T08:08:07;9.80;99.90
52036;DHT22;38046;49.448;32.074;2023-04-21T08:10:33;9.90;99.90
52036;DHT22;38046;49.448;32.074;2023-04-21T08:12:59;9.90;99.90
52036;DHT22;38046;49.448;32.074;2023-04-21T08:15:24;9.90;99.90
52036;DHT22;38046;49.448;32.074;2023-04-21T08:17:50;9.90;99.90
52036;DHT22;38046;49.448;32.074;2023-04-21T08:20:16;9.90;99.90
52036;DHT22;38046;49.448;32.074;2023-04-21T08:22:42;9.90;99.90
52036;DHT22;38046;49.448;32.074;2023-04-21T08:25:08;10.00;99.90
52036;DHT22;38046;49.448;32.074;2023-04-21T08:27:37;10.00;99.90
52036;DHT22;38046;49.448;32.074;2023-04-21T08:30:03;10.10;99.90
52036;DHT22;38046;49.448;32.074;2023-04-21T08:32:29;10.10;99.90
52036;DHT22;38046;49.448;32.074;2023-04-21T08:34:55;10.10;99.90
52036;DHT22;38046;49.448;32.074;2023-04-21T08:37:21;10.20;99.80
52036;DHT22;38046;49.448;32.074;2023-04-21T08:39:48;10.20;99.90
52036;DHT22;38046;49.448;32.074;2023-04-21T08:42:18;10.30;99.90
52036;DHT22;38046;49.448;32.074;2023-04-21T08:44:45;10.30;99.80
52036;DHT22;38046;49.448;32.074;2023-04-21T08:47:12;10.30;99.40
52036;DHT22;38046;49.448;32.074;2023-04-21T08:49:40;10.30;99.40
52036;DHT22;38046;49.448;32.074;2023-04-21T08:52:07;10.30;99.30
52036;DHT22;38046;49.448;32.074;2023-04-21T08:54:33;10.30;99.30
52036;DHT22;38046;49.448;32.074;2023-04-21T08:57:00;10.40;99.20
52036;DHT22;38046;49.448;32.074;2023-04-21T08:59:27;10.30;98.90
52036;DHT22;38046;49.448;32.074;2023-04-21T09:02:13;10.40;98.90
52036;DHT22;38046;49.448;32.074;2023-04-21T09:04:45;10.40;98.50
52036;DHT22;38046;49.448;32.074;2023-04-21T09:07:11;10.40;98.80
52036;DHT22;38046;49.448;32.074;2023-04-21T09:09:55;10.40;99.00
52036;DHT22;38046;49.448;32.074;2023-04-21T09:12:21;10.40;98.80
52036;DHT22;38046;49.448;32.074;2023-04-21T09:14:47;10.40;98.70
52036;DHT22;38046;49.448;32.074;2023-04-21T09:17:15;10.40;98.50
52036;DHT22;38046;49.448;32.074;2023-04-21T09:19:41;10.40;98.50
52036;DHT22;38046;49.448;32.074;2023-04-21T09:22:07;10.50;98.40
52036;DHT22;38046;49.448;32.074;2023-04-21T09:24:32;10.40;98.20
52036;DHT22;38046;49.448;32.074;2023-04-21T09:27:02;10.50;98.10
52036;DHT22;38046;49.448;32.074;2023-04-21T09:29:28;10.50;97.90
52036;DHT22;38046;49.448;32.074;2023-04-21T09:31:53;10.50;97.70
52036;DHT22;38046;49.448;32.074;2023-04-21T09:34:24;10.50;97.30
52036;DHT22;38046;49.448;32.074;2023-04-21T09:37:00;10.60;97.20
52036;DHT22;38046;49.448;32.074;2023-04-21T09:39:28;10.60;97.10
52036;DHT22;38046;49.448;32.074;2023-04-21T09:41:54;10.60;97.00
52036;DHT22;38046;49.448;32.074;2023-04-21T09:44:19;10.60;97.00
52036;DHT22;38046;49.448;32.074;2023-04-21T09:46:48;10.60;96.40
52036;DHT22;38046;49.448;32.074;2023-04-21T09:49:16;10.70;96.20
52036;DHT22;38046;49.448;32.074;2023-04-21T09:51:42;10.60;96.00
52036;DHT22;38046;49.448;32.074;2023-04-21T09:54:14;10.70;96.10
52036;DHT22;38046;49.448;32.074;2023-04-21T09:56:42;10.70;95.80
52036;DHT22;38046;49.448;32.074;2023-04-21T09:59:15;10.70;95.80
52036;DHT22;38046;49.448;32.074;2023-04-21T10:01:43;10.70;95.90
52036;DHT22;38046;49.448;32.074;2023-04-21T10:04:09;10.70;95.90
52036;DHT22;38046;49.448;32.074;2023-04-21T10:06:35;10.60;95.70
52036;DHT22;38046;49.448;32.074;2023-04-21T10:09:03;10.70;95.70
52036;DHT22;38046;49.448;32.074;2023-04-21T10:11:30;10.70;95.70
52036;DHT22;38046;49.448;32.074;2023-04-21T10:13:58;10.70;95.70
52036;DHT22;38046;49.448;32.074;2023-04-21T10:16:24;10.60;95.80
52036;DHT22;38046;49.448;32.074;2023-04-21T10:18:50;10.60;95.90
52036;DHT22;38046;49.448;32.074;2023-04-21T10:21:18;10.60;96.10
52036;DHT22;38046;49.448;32.074;2023-04-21T10:23:50;10.60;96.20
52036;DHT22;38046;49.448;32.074;2023-04-21T10:26:23;10.60;96.40
52036;DHT22;38046;49.448;32.074;2023-04-21T10:28:55;10.60;96.40
52036;DHT22;38046;49.448;32.074;2023-04-21T10:31:31;10.60;96.50
52036;DHT22;38046;49.448;32.074;2023-04-21T10:39:11;10.60;97.20
52036;DHT22;38046;49.448;32.074;2023-04-21T10:41:38;10.60;97.40
52036;DHT22;38046;49.448;32.074;2023-04-21T10:44:13;10.60;97.60
52036;DHT22;38046;49.448;32.074;2023-04-21T10:46:45;10.60;97.70
52036;DHT22;38046;49.448;32.074;2023-04-21T10:57:16;10.60;97.80
52036;DHT22;38046;49.448;32.074;2023-04-21T10:59:43;10.60;97.90
52036;DHT22;38046;49.448;32.074;2023-04-21T11:02:13;10.60;98.00
52036;DHT22;38046;49.448;32.074;2023-04-21T11:04:40;10.60;98.00
52036;DHT22;38046;49.448;32.074;2023-04-21T11:07:17;10.60;98.10
52036;DHT22;38046;49.448;32.074;2023-04-21T11:09:44;10.60;97.90
52036;DHT22;38046;49.448;32.074;2023-04-21T11:12:12;10.60;98.20
52036;DHT22;38046;49.448;32.074;2023-04-21T11:14:45;10.60;98.20
52036;DHT22;38046;49.448;32.074;2023-04-21T11:17:18;10.60;98.30
52036;DHT22;38046;49.448;32.074;2023-04-21T11:19:49;10.60;98.20
52036;DHT22;38046;49.448;32.074;2023-04-21T11:22:16;10.60;98.30
52036;DHT22;38046;49.448;32.074;2023-04-21T11:24:48;10.60;98.20
52036;DHT22;38046;49.448;32.074;2023-04-21T11:27:15;10.70;98.10
52036;DHT22;38046;49.448;32.074;2023-04-21T11:29:46;10.70;98.10
52036;DHT22;38046;49.448;32.074;2023-04-21T11:32:15;10.70;98.20
52036;DHT22;38046;49.448;32.074;2023-04-21T11:34:41;10.70;98.40
52036;DHT22;38046;49.448;32.074;2023-04-21T11:37:08;10.70;98.60
52036;DHT22;38046;49.448;32.074;2023-04-21T11:39:34;10.70;98.30
52036;DHT22;38046;49.448;32.074;2023-04-21T11:42:10;10.70;98.00
52036;DHT22;38046;49.448;32.074;2023-04-21T11:44:41;10.70;97.70
52036;DHT22;38046;49.448;32.074;2023-04-21T11:47:24;10.80;97.20
52036;DHT22;38046;49.448;32.074;2023-04-21T11:49:55;10.80;96.80
52036;DHT22;38046;49.448;32.074;2023-04-21T11:52:32;10.80;96.60
52036;DHT22;38046;49.448;32.074;2023-04-21T11:54:59;10.80;96.30
52036;DHT22;38046;49.448;32.074;2023-04-21T11:57:26;10.90;96.20
52036;DHT22;38046;49.448;32.074;2023-04-21T11:59:52;10.90;96.10
52036;DHT22;38046;49.448;32.074;2023-04-21T12:02:23;10.90;96.00
52036;DHT22;38046;49.448;32.074;2023-04-21T12:05:23;10.90;95.80
52036;DHT22;38046;49.448;32.074;2023-04-21T12:07:43;10.90;95.50
52036;DHT22;38046;49.448;32.074;2023-04-21T12:10:20;10.90;95.60
52036;DHT22;38046;49.448;32.074;2023-04-21T12:12:46;10.90;95.30
52036;DHT22;38046;49.448;32.074;2023-04-21T12:15:17;10.90;95.40
52036;DHT22;38046;49.448;32.074;2023-04-21T12:17:45;10.90;95.40
52036;DHT22;38046;49.448;32.074;2023-04-21T12:20:12;10.80;95.30
52036;DHT22;38046;49.448;32.074;2023-04-21T12:22:39;10.80;95.40
52036;DHT22;38046;49.448;32.074;2023-04-21T12:25:05;10.80;95.50
52036;DHT22;38046;49.448;32.074;2023-04-21T12:27:31;10.80;95.70
52036;DHT22;38046;49.448;32.074;2023-04-21T12:29:57;10.80;95.70
52036;DHT22;38046;49.448;32.074;2023-04-21T12:32:23;10.90;95.70
52036;DHT22;38046;49.448;32.074;2023-04-21T12:34:49;10.90;95.60
52036;DHT22;38046;49.448;32.074;2023-04-21T12:37:14;10.90;95.60
52036;DHT22;38046;49.448;32.074;2023-04-21T12:39:40;10.90;95.70
52036;DHT22;38046;49.448;32.074;2023-04-21T12:42:06;10.90;95.60
52036;DHT22;38046;49.448;32.074;2023-04-21T12:44:32;10.90;95.40
52036;DHT22;38046;49.448;32.074;2023-04-21T12:46:57;10.80;95.10
52036;DHT22;38046;49.448;32.074;2023-04-21T12:49:24;10.80;95.30
52036;DHT22;38046;49.448;32.074;2023-04-21T12:51:49;10.90;95.60
52036;DHT22;38046;49.448;32.074;2023-04-21T12:54:15;10.90;95.60
52036;DHT22;38046;49.448;32.074;2023-04-21T12:56:41;10.90;95.30
52036;DHT22;38046;49.448;32.074;2023-04-21T12:59:08;10.90;94.90
52036;DHT22;38046;49.448;32.074;2023-04-21T13:01:35;10.90;95.00
52036;DHT22;38046;49.448;32.074;2023-04-21T13:04:02;10.90;95.00
52036;DHT22;38046;49.448;32.074;2023-04-21T13:06:28;10.90;94.80
52036;DHT22;38046;49.448;32.074;2023-04-21T13:08:53;10.90;94.50
52036;DHT22;38046;49.448;32.074;2023-04-21T13:11:20;10.90;94.50
52036;DHT22;38046;49.448;32.074;2023-04-21T13:13:45;10.90;94.50
52036;DHT22;38046;49.448;32.074;2023-04-21T13:16:11;10.90;94.30
52036;DHT22;38046;49.448;32.074;2023-04-21T13:18:37;10.90;94.40
52036;DHT22;38046;49.448;32.074;2023-04-21T13:21:03;10.90;94.30
52036;DHT22;38046;49.448;32.074;2023-04-21T13:23:29;10.90;94.00
52036;DHT22;38046;49.448;32.074;2023-04-21T13:25:55;10.90;93.80
52036;DHT22;38046;49.448;32.074;2023-04-21T13:28:21;10.90;93.70
52036;DHT22;38046;49.448;32.074;2023-04-21T13:30:46;10.90;93.60
52036;DHT22;38046;49.448;32.074;2023-04-21T13:33:12;10.90;93.70
52036;DHT22;38046;49.448;32.074;2023-04-21T13:35:38;10.90;93.60
52036;DHT22;38046;49.448;32.074;2023-04-21T13:38:04;10.90;93.60
52036;DHT22;38046;49.448;32.074;2023-04-21T13:40:30;10.90;93.60
52036;DHT22;38046;49.448;32.074;2023-04-21T13:42:56;10.90;93.50
52036;DHT22;38046;49.448;32.074;2023-04-21T13:45:25;10.90;93.40
52036;DHT22;38046;49.448;32.074;2023-04-21T13:47:51;10.90;93.40
52036;DHT22;38046;49.448;32.074;2023-04-21T13:50:17;10.90;93.30
52036;DHT22;38046;49.448;32.074;2023-04-21T13:52:43;10.90;93.10
52036;DHT22;38046;49.448;32.074;2023-04-21T13:55:09;11.00;93.00
52036;DHT22;38046;49.448;32.074;2023-04-21T13:57:36;11.00;93.00
52036;DHT22;38046;49.448;32.074;2023-04-21T14:00:03;11.00;93.00
52036;DHT22;38046;49.448;32.074;2023-04-21T14:02:30;11.00;92.90
52036;DHT22;38046;49.448;32.074;2023-04-21T14:04:55;11.00;93.10
52036;DHT22;38046;49.448;32.074;2023-04-21T14:07:21;11.00;93.20
52036;DHT22;38046;49.448;32.074;2023-04-21T14:09:49;11.00;93.20
52036;DHT22;38046;49.448;32.074;2023-04-21T14:12:16;11.00;93.10
52036;DHT22;38046;49.448;32.074;2023-04-21T14:14:42;11.00;92.90
52036;DHT22;38046;49.448;32.074;2023-04-21T14:17:07;11.00;92.90
52036;DHT22;38046;49.448;32.074;2023-04-21T14:19:33;11.00;92.70
52036;DHT22;38046;49.448;32.074;2023-04-21T14:21:59;11.00;92.80
52036;DHT22;38046;49.448;32.074;2023-04-21T14:24:25;11.00;92.40
52036;DHT22;38046;49.448;32.074;2023-04-21T14:26:53;11.00;92.50
52036;DHT22;38046;49.448;32.074;2023-04-21T14:29:21;11.00;92.40
52036;DHT22;38046;49.448;32.074;2023-04-21T14:31:46;11.00;92.40
52036;DHT22;38046;49.448;32.074;2023-04-21T14:34:12;11.00;92.40
52036;DHT22;38046;49.448;32.074;2023-04-21T14:36:38;11.00;92.40
52036;DHT22;38046;49.448;32.074;2023-04-21T14:39:03;10.90;92.40
52036;DHT22;38046;49.448;32.074;2023-04-21T14:41:29;10.90;92.40
52036;DHT22;38046;49.448;32.074;2023-04-21T14:43:55;10.90;92.50
52036;DHT22;38046;49.448;32.074;2023-04-21T14:46:22;10.90;92.50
52036;DHT22;38046;49.448;32.074;2023-04-21T14:48:48;10.90;92.40
52036;DHT22;38046;49.448;32.074;2023-04-21T14:51:13;10.90;92.40
52036;DHT22;38046;49.448;32.074;2023-04-21T14:53:39;10.90;92.30
52036;DHT22;38046;49.448;32.074;2023-04-21T14:56:05;10.90;92.30
52036;DHT22;38046;49.448;32.074;2023-04-21T14:58:31;10.90;92.30
52036;DHT22;38046;49.448;32.074;2023-04-21T15:00:56;10.90;92.20
52036;DHT22;38046;49.448;32.074;2023-04-21T15:03:22;10.90;92.10
52036;DHT22;38046;49.448;32.074;2023-04-21T15:05:48;10.90;92.30
52036;DHT22;38046;49.448;32.074;2023-04-21T15:08:14;10.90;92.10
52036;DHT22;38046;49.448;32.074;2023-04-21T15:10:43;10.90;92.00
52036;DHT22;38046;49.448;32.074;2023-04-21T15:13:09;10.90;92.00
52036;DHT22;38046;49.448;32.074;2023-04-21T15:15:35;10.90;91.90
52036;DHT22;38046;49.448;32.074;2023-04-21T15:18:01;10.90;92.10
52036;DHT22;38046;49.448;32.074;2023-04-21T15:20:27;10.90;92.00
52036;DHT22;38046;49.448;32.074;2023-04-21T15:22:53;10.90;92.10
52036;DHT22;38046;49.448;32.074;2023-04-21T15:25:18;10.90;92.00
52036;DHT22;38046;49.448;32.074;2023-04-21T15:27:44;10.90;92.00
52036;DHT22;38046;49.448;32.074;2023-04-21T15:30:11;10.90;92.00
52036;DHT22;38046;49.448;32.074;2023-04-21T15:32:36;10.90;91.90
52036;DHT22;38046;49.448;32.074;2023-04-21T15:35:02;10.80;91.70
52036;DHT22;38046;49.448;32.074;2023-04-21T15:37:28;10.90;91.70